createdAt,value
2022-08-05T00:01:01.060Z,28.13
2022-08-05T00:06:29.284Z,28.12
2022-08-05T00:11:35.188Z,28.10
2022-08-05T00:16:53.389Z,27.96
2022-08-05T00:21:55.321Z,27.72
2022-08-05T00:26:56.777Z,27.43
2022-08-05T00:32:12.551Z,27.35
2022-08-05T00:37:16.320Z,27.27
2022-08-05T00:42:33.334Z,27.09
2022-08-05T00:47:56.834Z,27.01
2022-08-05T00:52:56.518Z,26.98
2022-08-05T00:57:59.347Z,26.90
2022-08-05T01:03:00.921Z,26.83
2022-08-05T01:08:30.789Z,26.87
2022-08-05T01:13:57.997Z,26.90
2022-08-05T01:18:56.544Z,26.91
2022-08-05T01:24:16.850Z,26.99
2022-08-05T01:29:44.362Z,26.97
2022-08-05T01:34:55.993Z,26.85
2022-08-05T01:39:59.017Z,26.75
2022-08-05T01:45:02.436Z,26.71
2022-08-05T01:50:07.507Z,26.70
2022-08-05T01:55:20.227Z,26.61
2022-08-05T02:00:30.594Z,26.54
2022-08-05T02:05:36.680Z,26.55
2022-08-05T02:10:51.126Z,26.60
2022-08-05T02:16:01.827Z,26.55
2022-08-05T02:21:14.738Z,26.34
2022-08-05T02:26:23.180Z,26.21
2022-08-05T02:31:34.653Z,26.09
2022-08-05T02:36:45.306Z,25.98
2022-08-05T02:42:00.993Z,25.72
2022-08-05T02:47:05.660Z,25.77
2022-08-05T02:52:11.574Z,25.71
2022-08-05T02:58:12.236Z,25.52
2022-08-05T03:02:40.830Z,25.37
2022-08-05T03:08:00.705Z,25.29
2022-08-05T03:13:17.754Z,25.08
2022-08-05T03:18:19.247Z,25.08
2022-08-05T03:23:33.046Z,25.13
2022-08-05T03:28:36.533Z,24.95
2022-08-05T03:33:51.310Z,24.92
2022-08-05T03:38:54.760Z,24.89
2022-08-05T03:44:08.074Z,24.59
2022-08-05T03:49:12.833Z,24.46
2022-08-05T03:55:50.559Z,24.43
2022-08-05T03:59:54.749Z,24.10
2022-08-05T04:05:02.254Z,24.14
2022-08-05T04:10:03.840Z,24.16
2022-08-05T04:15:06.608Z,24.17
2022-08-05T04:20:19.876Z,24.12
2022-08-05T04:25:38.527Z,24.19
2022-08-05T04:30:42.973Z,24.25
2022-08-05T04:36:16.177Z,24.20
2022-08-05T04:41:05.893Z,24.02
2022-08-05T04:46:08.868Z,24.06
2022-08-05T04:51:12.548Z,24.07
2022-08-05T04:56:34.964Z,24.09
2022-08-05T05:02:07.155Z,23.85
2022-08-05T05:06:57.831Z,24.00
2022-08-05T05:12:02.938Z,24.21
2022-08-05T05:17:07.554Z,24.29
2022-08-05T05:22:24.152Z,24.29
2022-08-05T05:27:45.349Z,24.41
2022-08-05T05:32:47.429Z,24.47
2022-08-05T05:38:00.213Z,24.59
2022-08-05T05:43:02.778Z,24.59
2022-08-05T05:48:08.101Z,24.61
2022-08-05T05:53:21.385Z,24.59
2022-08-05T05:58:31.775Z,24.73
2022-08-05T06:03:53.720Z,24.88
2022-08-05T06:08:55.177Z,24.85
2022-08-05T06:13:56.971Z,24.87
2022-08-05T06:19:00.787Z,25.06
2022-08-05T06:24:03.570Z,25.37
2022-08-05T06:29:23.593Z,25.23
2022-08-05T06:34:26.423Z,25.32
2022-08-05T06:39:29.042Z,25.52
2022-08-05T06:44:32.697Z,25.70
2022-08-05T06:50:00.522Z,25.71
2022-08-05T06:54:55.312Z,25.59
2022-08-05T06:59:58.344Z,25.51
2022-08-05T07:04:59.734Z,25.50
2022-08-05T07:10:03.564Z,25.26
2022-08-05T07:15:34.640Z,25.09
2022-08-05T07:20:45.691Z,25.00
2022-08-05T07:25:54.728Z,25.06
2022-08-05T07:30:57.177Z,24.97
2022-08-05T07:36:05.664Z,24.98
2022-08-05T07:42:13.762Z,25.09
2022-08-05T07:46:48.166Z,24.95
2022-08-05T07:51:54.442Z,25.13
2022-08-05T07:57:01.414Z,25.28
2022-08-05T08:02:17.938Z,25.05
2022-08-05T08:07:22.834Z,25.11
2022-08-05T08:12:35.331Z,24.86
2022-08-05T08:17:43.999Z,24.84
2022-08-05T08:22:57.075Z,24.89
2022-08-05T08:27:59.600Z,25.00
2022-08-05T08:33:04.666Z,25.12
2022-08-05T08:38:11.726Z,25.24
2022-08-05T08:45:01.586Z,25.15
2022-08-05T08:49:07.764Z,25.36
2022-08-05T08:54:07.061Z,25.81
2022-08-05T08:59:14.906Z,26.00
2022-08-05T09:04:21.636Z,26.14
2022-08-05T09:09:35.505Z,26.34
2022-08-05T09:14:56.488Z,25.98
2022-08-05T09:20:02.690Z,25.95
2022-08-05T09:25:13.819Z,25.92
2022-08-05T09:30:25.690Z,25.90
2022-08-05T09:35:27.679Z,25.85
2022-08-05T09:40:52.040Z,26.21
2022-08-05T09:46:07.541Z,26.33
2022-08-05T09:51:15.159Z,26.55
2022-08-05T09:56:34.086Z,26.32
2022-08-05T10:01:39.723Z,26.27
2022-08-05T10:06:59.009Z,26.42
2022-08-05T10:12:30.833Z,26.38
2022-08-05T10:17:37.601Z,26.43
2022-08-05T10:22:50.893Z,26.52
2022-08-05T10:28:13.878Z,26.91
2022-08-05T10:33:15.437Z,27.49
2022-08-05T10:38:25.044Z,27.98
2022-08-05T10:43:41.377Z,27.78
2022-08-05T10:48:58.107Z,27.45
2022-08-05T10:54:23.172Z,27.47
2022-08-05T11:00:03.502Z,27.93
2022-08-05T11:04:55.292Z,28.48
2022-08-05T11:10:04.120Z,28.74
2022-08-05T11:15:21.493Z,28.67
2022-08-05T11:20:46.105Z,28.34
2022-08-05T11:26:10.276Z,28.45
2022-08-05T11:31:11.639Z,27.91
2022-08-05T11:36:42.877Z,28.00
2022-08-05T11:42:01.995Z,27.84
2022-08-05T11:47:14.114Z,28.10
2022-08-05T11:52:29.220Z,28.87
2022-08-05T11:58:08.515Z,29.61
2022-08-05T12:02:53.167Z,30.56
2022-08-05T12:08:08.133Z,30.75
2022-08-05T12:13:17.388Z,30.89
2022-08-05T12:18:38.912Z,30.78
2022-08-05T12:23:50.988Z,31.27
2022-08-05T12:28:52.556Z,31.38
2022-08-05T12:33:59.651Z,31.37
2022-08-05T12:39:06.856Z,31.52
2022-08-05T12:44:14.674Z,31.27
2022-08-05T12:50:03.165Z,29.93
2022-08-05T12:55:17.099Z,29.40
2022-08-05T13:02:01.594Z,30.01
2022-08-05T13:05:48.154Z,31.05
2022-08-05T13:10:51.428Z,31.27
2022-08-05T13:15:54.298Z,30.42
2022-08-05T13:20:55.645Z,29.70
2022-08-05T13:26:01.001Z,29.57
2022-08-05T13:31:03.384Z,29.12
2022-08-05T13:36:15.658Z,28.77
2022-08-05T13:41:17.053Z,29.01
2022-08-05T13:46:30.788Z,28.87
2022-08-05T13:51:46.239Z,28.69
2022-08-05T13:56:51.564Z,28.35
2022-08-05T14:02:00.085Z,27.86
2022-08-05T14:07:24.990Z,27.73
2022-08-05T14:12:32.749Z,27.42
2022-08-05T14:17:35.178Z,27.81
2022-08-05T14:22:36.721Z,27.84
2022-08-05T14:27:38.227Z,27.74
2022-08-05T14:32:48.991Z,27.92
2022-08-05T14:37:54.979Z,28.08
2022-08-05T14:42:56.697Z,28.28
2022-08-05T14:48:05.440Z,28.03
2022-08-05T14:53:10.032Z,27.58
2022-08-05T14:58:14.051Z,27.13
2022-08-05T15:03:15.592Z,27.17
2022-08-05T15:08:58.500Z,26.94
2022-08-05T15:13:46.667Z,26.10
2022-08-05T15:18:52.509Z,25.77
2022-08-05T15:23:54.193Z,25.96
2022-08-05T15:28:55.538Z,26.00
2022-08-05T15:34:18.646Z,26.06
2022-08-05T15:40:58.218Z,26.01
2022-08-05T15:44:44.106Z,25.73
2022-08-05T15:49:56.052Z,25.65
2022-08-05T15:55:00.738Z,24.89
2022-08-05T16:00:07.306Z,24.92
2022-08-05T16:05:09.511Z,24.88
2022-08-05T16:10:11.654Z,24.97
2022-08-05T16:15:18.563Z,24.76
2022-08-05T16:20:20.222Z,24.89
2022-08-05T16:25:21.566Z,24.95
2022-08-05T16:30:34.419Z,25.00
2022-08-05T16:35:42.345Z,24.89
2022-08-05T16:40:47.766Z,24.88
2022-08-05T16:46:04.095Z,24.82
2022-08-05T16:51:11.167Z,24.76
2022-08-05T16:56:12.592Z,24.70
2022-08-05T17:01:14.145Z,24.78
2022-08-05T17:06:16.516Z,24.83
2022-08-05T17:11:18.117Z,24.80
2022-08-05T17:16:33.592Z,24.90
2022-08-05T17:21:39.431Z,24.64
2022-08-05T17:26:41.739Z,24.53
2022-08-05T17:31:58.570Z,24.46
2022-08-05T17:37:00.727Z,24.40
2022-08-05T17:42:19.170Z,24.45
2022-08-05T17:47:23.595Z,24.38
2022-08-05T17:52:25.597Z,24.39
2022-08-05T17:57:28.314Z,24.45
2022-08-05T18:02:29.636Z,24.35
2022-08-05T18:07:32.820Z,24.31
2022-08-05T18:12:42.397Z,24.23
2022-08-05T18:18:00.710Z,24.17
2022-08-05T18:23:11.425Z,24.06
2022-08-05T18:28:17.348Z,24.05
2022-08-05T18:33:22.519Z,23.99
2022-08-05T18:38:26.165Z,23.94
2022-08-05T18:43:27.941Z,23.75
2022-08-05T18:48:33.491Z,23.55
2022-08-05T18:53:34.833Z,23.37
2022-08-05T18:58:47.223Z,23.25
2022-08-05T19:03:55.718Z,23.22
2022-08-05T19:08:58.037Z,23.02
2022-08-05T19:14:00.912Z,23.01
2022-08-05T19:19:06.622Z,22.98
2022-08-05T19:24:12.940Z,22.95
2022-08-05T19:29:15.636Z,22.89
2022-08-05T19:34:20.674Z,22.70
2022-08-05T19:39:23.318Z,22.68
2022-08-05T19:44:29.594Z,22.68
2022-08-05T19:49:31.430Z,22.59
2022-08-05T19:54:34.750Z,22.57
2022-08-05T19:59:59.408Z,22.53
2022-08-05T20:05:00.058Z,22.52
2022-08-05T20:10:04.754Z,22.51
2022-08-05T20:15:07.040Z,22.28
2022-08-05T20:20:11.125Z,22.33
2022-08-05T20:25:12.593Z,22.32
2022-08-05T20:30:13.984Z,22.26
2022-08-05T20:35:19.754Z,22.32
2022-08-05T20:40:21.089Z,22.26
2022-08-05T20:45:22.798Z,22.13
2022-08-05T20:50:45.538Z,22.03
2022-08-05T20:56:07.341Z,22.02
2022-08-05T21:01:09.966Z,22.00
2022-08-05T21:06:27.712Z,22.02
2022-08-05T21:12:09.225Z,21.96
2022-08-05T21:16:51.330Z,21.94
2022-08-05T21:21:53.099Z,21.87
2022-08-05T21:26:58.695Z,21.81
2022-08-05T21:32:02.137Z,21.81
2022-08-05T21:37:06.517Z,21.74
2022-08-05T21:42:30.783Z,21.64
2022-08-05T21:47:57.111Z,21.63
2022-08-05T21:52:52.937Z,21.62
2022-08-05T21:57:54.773Z,21.60
2022-08-05T22:02:59.619Z,21.54
2022-08-05T22:08:03.352Z,21.51
2022-08-05T22:14:06.168Z,21.51
2022-08-05T22:18:28.385Z,21.49
2022-08-05T22:24:03.201Z,21.45
2022-08-05T22:29:10.582Z,21.33
2022-08-05T22:34:25.453Z,21.27
2022-08-05T22:39:33.944Z,21.18
2022-08-05T22:44:35.629Z,21.13
2022-08-05T22:50:20.748Z,21.18
2022-08-05T22:54:58.379Z,21.10
2022-08-05T22:59:59.763Z,20.90
2022-08-05T23:05:02.011Z,20.78
2022-08-05T23:10:06.784Z,20.70
2022-08-05T23:15:09.596Z,20.69
2022-08-05T23:20:17.481Z,20.65
2022-08-05T23:25:51.905Z,20.61
2022-08-05T23:30:43.461Z,20.54
2022-08-05T23:35:45.377Z,20.46
2022-08-05T23:40:49.795Z,20.44
2022-08-05T23:45:52.054Z,20.40
2022-08-05T23:50:53.413Z,20.45
2022-08-05T23:55:54.773Z,20.44
